LICA/SUF METAR and TAF weather

Enter ICAO airport designator
Station Type Date Time Source
LICA METAR 2019/08/26 07:50 UTC NOAA

LICA 260750Z VRB04KT 9999 FEW020 28/22 Q1016


Station Type Date Time Source
LICA Decoded METAR 2019/08/26 07:50 UTC NOAA

Station name not available
Aug 26, 2019 - 03:50 AM EDT / 2019.08.26 0750 UTC
Wind: Variable at 5 MPH (4 KT):0
Visibility: greater than 7 mile(s):0
Sky conditions: mostly clear
Temperature: 82 F (28 C)
Dew Point: 71 F (22 C)
Relative Humidity: 69%
Pressure (altimeter): 30.00 in. Hg (1016 hPa)
ob: LICA 260750Z VRB04KT 9999 FEW020 28/22 Q1016
cycle: 8

Station Type Date Time Source
LICA TAF 2019/08/26 06:25 UTC NOAA

TAF LICA 260500Z 2606/2706 VRB05KT 9999 SCT020
BECMG 2608/2610 27012KT
TEMPO 2612/2616 TSRA
BECMG 2618/2620 08006KT

Example: see airport list